createdAt,value
2022-11-09T00:00:54.459Z,92.17
2022-11-09T00:03:21.317Z,91.96
2022-11-09T00:05:58.241Z,91.97
2022-11-09T00:08:24.881Z,91.98
2022-11-09T00:10:51.599Z,92.19
2022-11-09T00:13:18.378Z,92.17
2022-11-09T00:15:45.113Z,92.16
2022-11-09T00:18:11.574Z,92.34
2022-11-09T00:20:38.048Z,92.58
2022-11-09T00:23:04.526Z,92.55
2022-11-09T00:25:31.084Z,92.69
2022-11-09T00:27:57.618Z,92.79
2022-11-09T00:30:24.079Z,92.78
2022-11-09T00:32:50.525Z,93.15
2022-11-09T00:35:17.121Z,92.84
2022-11-09T00:37:43.696Z,92.58
2022-11-09T00:40:11.024Z,92.93
2022-11-09T00:42:37.510Z,92.69
2022-11-09T00:45:04.206Z,92.62
2022-11-09T00:47:30.719Z,92.31
2022-11-09T00:49:57.163Z,92.30
2022-11-09T00:52:23.695Z,92.47
2022-11-09T00:54:50.189Z,92.75
2022-11-09T00:57:17.175Z,92.57
2022-11-09T00:59:43.690Z,92.78
2022-11-09T01:02:10.126Z,92.66
2022-11-09T01:04:36.748Z,92.87
2022-11-09T01:07:03.323Z,92.72
2022-11-09T01:09:29.964Z,92.95
2022-11-09T01:11:56.421Z,93.07
2022-11-09T01:14:23.698Z,93.05
2022-11-09T01:16:50.363Z,92.93
2022-11-09T01:19:17.187Z,93.22
2022-11-09T01:21:43.838Z,92.73
2022-11-09T01:24:10.443Z,92.80
2022-11-09T01:26:37.553Z,92.39
2022-11-09T01:29:04.005Z,92.05
2022-11-09T01:31:30.698Z,91.78
2022-11-09T01:33:57.132Z,91.52
2022-11-09T01:36:24.604Z,91.29
2022-11-09T01:38:51.236Z,91.55
2022-11-09T01:41:24.585Z,91.32
2022-11-09T01:44:06.384Z,90.96
2022-11-09T01:46:59.038Z,90.90
2022-11-09T01:49:52.870Z,91.04
2022-11-09T01:52:24.591Z,91.27
2022-11-09T01:54:58.420Z,91.32
2022-11-09T01:57:31.736Z,91.36
2022-11-09T02:00:02.836Z,91.44
2022-11-09T02:02:29.304Z,91.57
2022-11-09T02:05:01.307Z,91.63
2022-11-09T02:07:28.418Z,92.24
2022-11-09T02:10:07.305Z,92.16
2022-11-09T02:12:35.319Z,92.25
2022-11-09T02:15:05.187Z,92.24
2022-11-09T02:17:32.580Z,92.33
2022-11-09T02:19:59.063Z,92.23
2022-11-09T02:22:25.906Z,92.13
2022-11-09T02:24:56.146Z,92.01
2022-11-09T02:27:23.341Z,92.15
2022-11-09T02:29:49.983Z,92.27
2022-11-09T02:32:20.592Z,92.10
2022-11-09T02:34:47.072Z,92.39
2022-11-09T02:37:13.742Z,92.57
2022-11-09T02:39:40.760Z,92.73
2022-11-09T02:42:13.006Z,92.96
2022-11-09T02:44:46.113Z,92.79
2022-11-09T02:47:12.698Z,92.84
2022-11-09T02:49:39.134Z,92.82
2022-11-09T02:52:05.858Z,92.94
2022-11-09T02:54:32.486Z,92.76
2022-11-09T02:56:58.978Z,92.86
2022-11-09T02:59:25.554Z,93.15
2022-11-09T03:01:52.138Z,93.24
2022-11-09T03:04:18.608Z,93.19
2022-11-09T03:06:45.136Z,93.48
2022-11-09T03:09:12.626Z,93.50
2022-11-09T03:11:40.786Z,93.44
2022-11-09T03:14:09.809Z,93.73
2022-11-09T03:16:39.832Z,93.59
2022-11-09T03:19:06.911Z,93.36
2022-11-09T03:21:33.354Z,93.42
2022-11-09T03:23:59.848Z,93.18
2022-11-09T03:26:26.517Z,93.69
2022-11-09T03:28:52.993Z,93.78
2022-11-09T03:31:19.638Z,93.57
2022-11-09T03:33:46.166Z,93.64
2022-11-09T03:36:12.743Z,93.91
2022-11-09T03:38:39.201Z,94.24
2022-11-09T03:41:05.716Z,94.23
2022-11-09T03:43:32.215Z,94.37
2022-11-09T03:45:58.765Z,94.81
2022-11-09T03:48:25.359Z,94.71
2022-11-09T03:50:51.891Z,94.87
2022-11-09T03:53:18.846Z,94.97
2022-11-09T03:55:45.707Z,94.85
2022-11-09T03:58:13.225Z,95.17
2022-11-09T04:00:39.954Z,94.94
2022-11-09T04:03:06.369Z,95.14
2022-11-09T04:05:32.873Z,95.27
2022-11-09T04:07:59.721Z,95.20
2022-11-09T04:10:27.369Z,95.26
2022-11-09T04:12:54.433Z,94.99
2022-11-09T04:15:21.296Z,94.82
2022-11-09T04:18:03.618Z,94.70
2022-11-09T04:20:31.486Z,94.55
2022-11-09T04:23:03.438Z,94.70
2022-11-09T04:25:33.541Z,94.71
2022-11-09T04:28:00.832Z,94.54
2022-11-09T04:30:29.189Z,94.69
2022-11-09T04:32:59.635Z,94.52
2022-11-09T04:35:28.678Z,94.39
2022-11-09T04:37:56.350Z,94.67
2022-11-09T04:40:24.530Z,94.53
2022-11-09T04:42:51.315Z,94.86
2022-11-09T04:45:18.057Z,94.20
2022-11-09T04:47:44.470Z,94.53
2022-11-09T04:50:11.431Z,94.19
2022-11-09T04:52:37.950Z,94.38
2022-11-09T04:55:05.637Z,94.17
2022-11-09T04:57:32.114Z,94.13
2022-11-09T04:59:58.577Z,93.80
2022-11-09T05:02:25.009Z,93.89
2022-11-09T05:04:51.441Z,93.84
2022-11-09T05:07:18.232Z,93.76
2022-11-09T05:09:44.677Z,93.66
2022-11-09T05:12:11.397Z,93.65
2022-11-09T05:14:37.975Z,93.37
2022-11-09T05:17:04.516Z,93.75
2022-11-09T05:19:30.974Z,93.59
2022-11-09T05:22:17.394Z,93.62
2022-11-09T05:24:43.913Z,93.53
2022-11-09T05:27:10.387Z,93.59
2022-11-09T05:29:36.866Z,93.85
2022-11-09T05:32:03.409Z,94.14
2022-11-09T05:34:29.825Z,93.90
2022-11-09T05:37:00.720Z,94.20
2022-11-09T05:39:29.719Z,94.60
2022-11-09T05:41:56.147Z,94.53
2022-11-09T05:44:22.620Z,94.55
2022-11-09T05:46:49.155Z,94.64
2022-11-09T05:49:15.641Z,94.82
2022-11-09T05:51:42.059Z,94.73
2022-11-09T05:54:08.847Z,94.91
2022-11-09T05:56:35.331Z,94.84
2022-11-09T05:59:01.761Z,94.98
2022-11-09T06:01:28.246Z,95.03
2022-11-09T06:03:55.192Z,95.23
2022-11-09T06:06:21.702Z,95.21
2022-11-09T06:08:49.951Z,95.28
2022-11-09T06:11:23.268Z,94.85
2022-11-09T06:13:50.968Z,95.06
2022-11-09T06:16:17.383Z,94.97
2022-11-09T06:18:43.873Z,94.79
2022-11-09T06:21:10.693Z,95.02
2022-11-09T06:23:37.271Z,94.85
2022-11-09T06:26:10.051Z,94.77
2022-11-09T06:28:38.035Z,94.62
2022-11-09T06:31:06.921Z,94.95
2022-11-09T06:33:34.978Z,95.18
2022-11-09T06:36:02.023Z,95.29
2022-11-09T06:38:28.748Z,95.17
2022-11-09T06:40:57.712Z,95.26
2022-11-09T06:43:25.154Z,95.52
2022-11-09T06:45:52.305Z,95.67
2022-11-09T06:48:19.432Z,95.45
2022-11-09T06:50:46.283Z,95.64
2022-11-09T06:53:14.888Z,95.81
2022-11-09T06:55:44.512Z,95.96
2022-11-09T06:58:15.947Z,95.79
2022-11-09T07:00:43.578Z,96.28
2022-11-09T07:03:14.810Z,96.22
2022-11-09T07:05:41.402Z,96.14
2022-11-09T07:08:07.873Z,96.14
2022-11-09T07:10:34.383Z,96.62
2022-11-09T07:13:03.203Z,96.57
2022-11-09T07:15:29.989Z,96.92
2022-11-09T07:17:57.688Z,96.53
2022-11-09T07:20:24.072Z,97.07
2022-11-09T07:22:50.939Z,96.89
2022-11-09T07:25:17.457Z,96.90
2022-11-09T07:27:44.107Z,97.00
2022-11-09T07:30:11.179Z,97.51
2022-11-09T07:33:08.697Z,97.16
2022-11-09T07:35:26.399Z,97.04
2022-11-09T07:37:53.165Z,97.29
2022-11-09T07:40:20.068Z,96.75
2022-11-09T07:42:46.831Z,96.53
2022-11-09T07:45:13.369Z,96.26
2022-11-09T07:47:39.854Z,96.03
2022-11-09T07:50:06.852Z,96.23
2022-11-09T07:52:33.298Z,95.90
2022-11-09T07:54:59.739Z,95.86
2022-11-09T07:57:26.213Z,95.98
2022-11-09T07:59:53.665Z,95.68
2022-11-09T08:02:20.290Z,95.37
2022-11-09T08:04:46.924Z,95.34
2022-11-09T08:07:13.454Z,95.32
2022-11-09T08:09:40.008Z,95.72
2022-11-09T08:12:06.768Z,95.58
2022-11-09T08:14:33.667Z,95.45
2022-11-09T08:17:00.166Z,95.46
2022-11-09T08:19:26.634Z,95.47
2022-11-09T08:21:57.355Z,95.44
2022-11-09T08:24:24.412Z,95.36
2022-11-09T08:26:50.874Z,95.42
2022-11-09T08:29:17.551Z,95.16
2022-11-09T08:31:44.141Z,95.05
2022-11-09T08:34:13.910Z,94.72
2022-11-09T08:36:40.429Z,94.69
2022-11-09T08:39:07.004Z,94.61
2022-11-09T08:41:33.843Z,94.30
2022-11-09T08:44:00.513Z,94.41
2022-11-09T08:46:27.011Z,94.02
2022-11-09T08:48:53.524Z,93.85
2022-11-09T08:51:20.038Z,93.88
2022-11-09T08:53:46.508Z,93.56
2022-11-09T08:56:13.088Z,93.56
2022-11-09T08:58:39.763Z,93.13
2022-11-09T09:01:12.203Z,93.04
2022-11-09T09:03:41.949Z,92.69
2022-11-09T09:06:08.906Z,92.44
2022-11-09T09:08:35.600Z,91.92
2022-11-09T09:11:05.651Z,91.56
2022-11-09T09:13:33.439Z,91.10
2022-11-09T09:16:13.029Z,90.94
2022-11-09T09:18:39.542Z,90.84
2022-11-09T09:21:10.753Z,90.55
2022-11-09T09:23:37.233Z,90.00
2022-11-09T09:26:04.269Z,89.58
2022-11-09T09:28:30.814Z,89.31
2022-11-09T09:30:59.709Z,88.61
2022-11-09T09:33:27.123Z,88.61
2022-11-09T09:35:58.031Z,88.56
2022-11-09T09:38:25.964Z,88.18
2022-11-09T09:41:01.536Z,88.02
2022-11-09T09:43:38.348Z,86.92
2022-11-09T09:46:20.086Z,87.09
2022-11-09T09:48:53.202Z,86.23
2022-11-09T09:51:28.578Z,86.25
2022-11-09T09:54:06.871Z,85.57
2022-11-09T09:56:41.040Z,84.87
2022-11-09T09:59:14.660Z,85.02
2022-11-09T10:01:44.302Z,85.45
2022-11-09T10:04:40.841Z,85.75
2022-11-09T10:07:17.611Z,86.21
2022-11-09T10:09:46.917Z,85.29
2022-11-09T10:12:59.118Z,85.11
2022-11-09T10:15:39.391Z,84.55
2022-11-09T10:18:34.933Z,84.01
2022-11-09T10:21:32.580Z,84.02
2022-11-09T10:25:12.871Z,83.71
2022-11-09T10:27:36.840Z,83.10
2022-11-09T10:30:14.989Z,82.82
2022-11-09T10:32:45.247Z,81.83
2022-11-09T10:35:22.431Z,82.71
2022-11-09T10:37:52.214Z,82.88
2022-11-09T10:40:30.315Z,83.48
2022-11-09T10:43:06.031Z,82.80
2022-11-09T10:45:37.859Z,81.53
2022-11-09T10:48:06.377Z,81.70
2022-11-09T10:50:39.998Z,81.26
2022-11-09T10:53:19.187Z,80.92
2022-11-09T10:55:55.001Z,80.94
2022-11-09T10:58:39.218Z,80.90
2022-11-09T11:01:23.130Z,80.26
2022-11-09T11:03:51.863Z,80.21
2022-11-09T11:06:27.857Z,80.02
2022-11-09T11:09:06.251Z,80.58
2022-11-09T11:11:36.423Z,80.16
2022-11-09T11:14:17.137Z,79.76
2022-11-09T11:16:48.424Z,79.44
2022-11-09T11:19:33.835Z,78.86
2022-11-09T11:22:11.953Z,78.33
2022-11-09T11:25:03.236Z,79.06
2022-11-09T11:27:32.596Z,79.53
2022-11-09T11:30:05.588Z,80.21
2022-11-09T11:32:32.824Z,80.19
2022-11-09T11:35:01.092Z,80.34
2022-11-09T11:37:37.884Z,80.45
2022-11-09T11:40:15.063Z,80.31
2022-11-09T11:42:55.865Z,79.40
2022-11-09T11:45:41.531Z,79.53
2022-11-09T11:48:27.305Z,80.11
2022-11-09T11:51:13.397Z,79.88
2022-11-09T11:53:43.389Z,79.65
2022-11-09T11:56:26.142Z,79.02
2022-11-09T11:59:19.918Z,79.57
2022-11-09T12:02:11.086Z,81.40
2022-11-09T12:05:08.816Z,84.21
2022-11-09T12:07:42.788Z,85.65
2022-11-09T12:10:28.624Z,86.59
2022-11-09T12:13:16.914Z,87.50
2022-11-09T12:15:49.518Z,87.39
2022-11-09T12:18:35.357Z,87.50
2022-11-09T12:21:27.459Z,87.23
2022-11-09T12:24:17.842Z,87.38
2022-11-09T12:27:25.640Z,87.97
2022-11-09T12:30:03.080Z,87.20
2022-11-09T12:32:55.384Z,88.05
2022-11-09T12:35:56.585Z,88.22
2022-11-09T12:38:29.089Z,87.55
2022-11-09T12:41:05.234Z,87.20
2022-11-09T12:43:34.755Z,86.46
2022-11-09T12:46:04.416Z,86.22
2022-11-09T12:48:35.479Z,85.92
2022-11-09T12:51:04.881Z,85.71
2022-11-09T12:53:39.040Z,85.00
2022-11-09T12:56:10.615Z,85.46
2022-11-09T12:58:39.476Z,85.48
2022-11-09T13:01:11.267Z,85.29
2022-11-09T13:03:40.873Z,83.14
2022-11-09T13:06:13.361Z,83.07
2022-11-09T13:08:41.783Z,83.74
2022-11-09T13:11:09.949Z,83.64
2022-11-09T13:13:36.750Z,83.88
2022-11-09T13:16:30.257Z,83.34
2022-11-09T13:18:56.742Z,82.57
2022-11-09T13:21:23.111Z,82.44
2022-11-09T13:24:10.396Z,81.89
2022-11-09T13:26:37.416Z,81.67
2022-11-09T13:29:06.858Z,80.92
2022-11-09T13:32:09.016Z,81.12
2022-11-09T13:34:57.584Z,81.35
2022-11-09T13:37:41.819Z,81.71
2022-11-09T13:40:33.024Z,80.99
2022-11-09T13:43:08.763Z,81.31
2022-11-09T13:45:38.399Z,80.62
2022-11-09T13:48:06.724Z,78.96
2022-11-09T13:50:34.985Z,79.36
2022-11-09T13:53:02.193Z,79.65
2022-11-09T13:55:39.320Z,79.42
2022-11-09T13:58:23.640Z,78.55
2022-11-09T14:00:50.192Z,78.35
2022-11-09T14:03:25.987Z,78.41
2022-11-09T14:05:56.176Z,77.75
2022-11-09T14:08:28.034Z,77.64
2022-11-09T14:11:16.423Z,77.43
2022-11-09T14:13:51.119Z,77.42
2022-11-09T14:16:37.593Z,77.95
2022-11-09T14:19:42.842Z,78.30
2022-11-09T14:22:16.251Z,77.96
2022-11-09T14:24:43.579Z,77.94
2022-11-09T14:27:09.984Z,78.61
2022-11-09T14:29:46.736Z,78.66
2022-11-09T14:32:36.901Z,78.73
2022-11-09T14:35:35.078Z,79.05
2022-11-09T14:38:14.961Z,79.04
2022-11-09T14:40:45.838Z,78.71
2022-11-09T14:43:30.542Z,78.37
2022-11-09T14:46:12.588Z,78.33
2022-11-09T14:48:43.298Z,78.41
2022-11-09T14:51:14.570Z,77.98
2022-11-09T14:53:42.742Z,78.23
2022-11-09T14:56:13.780Z,79.02
2022-11-09T14:58:43.927Z,79.29
2022-11-09T15:01:23.848Z,79.36
2022-11-09T15:04:22.737Z,79.62
2022-11-09T15:06:52.425Z,79.57
2022-11-09T15:09:21.780Z,79.62
2022-11-09T15:11:49.267Z,79.38
2022-11-09T15:14:27.863Z,79.61
2022-11-09T15:17:17.036Z,80.91
2022-11-09T15:19:58.241Z,82.49
2022-11-09T15:22:37.090Z,83.72
2022-11-09T15:25:24.655Z,85.22
2022-11-09T15:27:59.276Z,85.98
2022-11-09T15:30:31.767Z,86.74
2022-11-09T15:32:58.293Z,87.00
2022-11-09T15:35:25.349Z,87.68
2022-11-09T15:37:53.742Z,87.59
2022-11-09T15:40:22.964Z,87.75
2022-11-09T15:42:49.436Z,87.54
2022-11-09T15:45:19.717Z,87.19
2022-11-09T15:47:52.576Z,87.04
2022-11-09T15:50:22.790Z,87.13
2022-11-09T15:52:49.919Z,86.86
2022-11-09T15:55:22.201Z,86.48
2022-11-09T15:57:50.145Z,86.77
2022-11-09T16:00:20.969Z,86.49
2022-11-09T16:02:48.530Z,86.14
2022-11-09T16:05:15.839Z,86.65
2022-11-09T16:07:49.880Z,86.48
2022-11-09T16:10:17.779Z,86.33
2022-11-09T16:12:46.461Z,86.66
2022-11-09T16:15:13.434Z,86.90
2022-11-09T16:17:40.090Z,86.45
2022-11-09T16:20:07.381Z,86.52
2022-11-09T16:22:34.132Z,86.57
2022-11-09T16:25:00.665Z,86.37
2022-11-09T16:27:49.029Z,86.28
2022-11-09T16:30:14.960Z,86.55
2022-11-09T16:32:41.624Z,86.59
2022-11-09T16:35:25.979Z,86.87
2022-11-09T16:37:55.250Z,86.63
2022-11-09T16:40:22.830Z,86.66
2022-11-09T16:42:51.588Z,86.52
2022-11-09T16:45:18.035Z,86.95
2022-11-09T16:47:48.997Z,86.92
2022-11-09T16:50:15.861Z,86.96
2022-11-09T16:52:43.140Z,86.96
2022-11-09T16:55:10.212Z,87.06
2022-11-09T16:57:37.175Z,87.34
2022-11-09T17:00:05.824Z,87.47
2022-11-09T17:02:32.399Z,87.64
2022-11-09T17:04:58.905Z,87.62
2022-11-09T17:07:25.672Z,87.66
2022-11-09T17:09:52.104Z,87.76
2022-11-09T17:12:18.607Z,87.94
2022-11-09T17:14:45.040Z,88.23
2022-11-09T17:17:11.537Z,88.38
2022-11-09T17:19:38.259Z,88.63
2022-11-09T17:22:04.740Z,88.95
2022-11-09T17:24:31.715Z,88.83
2022-11-09T17:26:58.491Z,89.13
2022-11-09T17:29:25.057Z,89.13
2022-11-09T17:31:51.608Z,89.29
2022-11-09T17:34:18.359Z,88.99
2022-11-09T17:39:31.561Z,89.48
2022-11-09T17:41:58.012Z,89.32
2022-11-09T17:44:24.751Z,89.27
2022-11-09T17:46:51.163Z,89.32
2022-11-09T17:49:17.622Z,89.43
2022-11-09T17:51:44.371Z,89.55
2022-11-09T17:54:10.867Z,89.16
2022-11-09T17:56:37.365Z,89.20
2022-11-09T17:59:05.424Z,89.08
2022-11-09T18:01:36.442Z,89.07
2022-11-09T18:04:06.863Z,89.08
2022-11-09T18:06:33.953Z,89.24
2022-11-09T18:09:34.242Z,89.10
2022-11-09T18:11:47.767Z,88.97
2022-11-09T18:14:15.809Z,89.03
2022-11-09T18:16:42.876Z,89.26
2022-11-09T18:19:09.297Z,88.99
2022-11-09T18:21:35.742Z,89.00
2022-11-09T18:24:02.367Z,89.42
2022-11-09T18:26:31.222Z,88.93
2022-11-09T18:28:57.895Z,89.40
2022-11-09T18:31:24.565Z,89.16
2022-11-09T18:33:53.914Z,89.30
2022-11-09T18:36:21.685Z,89.39
2022-11-09T18:38:51.109Z,89.36
2022-11-09T18:41:20.484Z,89.41
2022-11-09T18:43:47.135Z,89.30
2022-11-09T18:46:16.060Z,89.21
2022-11-09T18:48:42.976Z,89.37
2022-11-09T18:51:10.713Z,89.60
2022-11-09T18:53:42.567Z,89.59
2022-11-09T18:56:19.069Z,89.84
2022-11-09T18:58:46.402Z,89.57
2022-11-09T19:01:13.643Z,89.71
2022-11-09T19:03:40.462Z,90.05
2022-11-09T19:06:15.674Z,90.15
2022-11-09T19:09:01.889Z,90.37
2022-11-09T19:11:29.967Z,90.47
2022-11-09T19:13:56.477Z,90.83
2022-11-09T19:16:24.087Z,91.14
2022-11-09T19:18:50.637Z,91.15
2022-11-09T19:21:35.682Z,91.20
2022-11-09T19:24:02.528Z,91.23
2022-11-09T19:26:29.396Z,91.55
2022-11-09T19:28:55.878Z,91.66
2022-11-09T19:31:25.824Z,91.87
2022-11-09T19:33:52.653Z,92.06
2022-11-09T19:36:30.301Z,91.81
2022-11-09T19:38:57.475Z,91.97
2022-11-09T19:41:25.260Z,91.99
2022-11-09T19:43:54.638Z,92.01
2022-11-09T19:46:22.038Z,92.40
2022-11-09T19:48:48.684Z,92.10
2022-11-09T19:51:16.514Z,92.45
2022-11-09T19:53:52.583Z,92.25
2022-11-09T19:56:20.858Z,92.41
2022-11-09T19:58:52.539Z,92.73
2022-11-09T20:01:19.585Z,93.04
2022-11-09T20:03:54.483Z,92.72
2022-11-09T20:06:22.461Z,92.94
2022-11-09T20:08:49.510Z,93.10
2022-11-09T20:11:36.673Z,93.53
2022-11-09T20:14:07.827Z,93.37
2022-11-09T20:16:35.804Z,93.49
2022-11-09T20:19:03.856Z,94.13
2022-11-09T20:21:30.404Z,93.76
2022-11-09T20:23:57.046Z,93.78
2022-11-09T20:26:23.832Z,94.15
2022-11-09T20:28:52.449Z,94.42
2022-11-09T20:31:19.774Z,94.61
2022-11-09T20:33:46.362Z,94.70
2022-11-09T20:36:12.859Z,94.71
2022-11-09T20:38:39.875Z,94.68
2022-11-09T20:41:10.126Z,94.82
2022-11-09T20:43:37.248Z,95.02
2022-11-09T20:46:05.925Z,95.06
2022-11-09T20:49:02.791Z,95.28
2022-11-09T20:51:19.856Z,95.06
2022-11-09T20:53:47.452Z,95.14
2022-11-09T20:56:14.540Z,95.33
2022-11-09T20:58:41.665Z,95.43
2022-11-09T21:01:20.815Z,95.47
2022-11-09T21:03:48.917Z,95.59
2022-11-09T21:06:15.488Z,95.96
2022-11-09T21:08:46.506Z,95.99
2022-11-09T21:11:13.150Z,95.88
2022-11-09T21:13:42.114Z,95.93
2022-11-09T21:16:13.914Z,95.88
2022-11-09T21:18:41.688Z,95.94
2022-11-09T21:21:11.406Z,96.36
2022-11-09T21:23:58.178Z,96.00
2022-11-09T21:26:43.479Z,96.28
2022-11-09T21:29:30.858Z,96.42
2022-11-09T21:31:57.697Z,96.43
2022-11-09T21:34:24.334Z,97.05
2022-11-09T21:36:51.088Z,96.75
2022-11-09T21:39:17.782Z,96.87
2022-11-09T21:41:44.472Z,97.09
2022-11-09T21:44:12.067Z,97.42
2022-11-09T21:46:40.121Z,97.55
2022-11-09T21:49:07.886Z,97.27
2022-11-09T21:51:35.695Z,97.36
2022-11-09T21:54:03.060Z,97.59
2022-11-09T21:56:29.570Z,97.60
2022-11-09T21:58:56.000Z,97.24
2022-11-09T22:01:22.925Z,97.05
2022-11-09T22:03:50.542Z,97.40
2022-11-09T22:06:17.222Z,97.38
2022-11-09T22:08:44.804Z,97.70
2022-11-09T22:11:42.015Z,97.79
2022-11-09T22:14:35.357Z,97.67
2022-11-09T22:17:05.167Z,97.94
2022-11-09T22:19:50.148Z,98.09
2022-11-09T22:22:16.607Z,98.41
2022-11-09T22:24:43.168Z,98.00
2022-11-09T22:27:09.932Z,98.29
2022-11-09T22:29:36.734Z,98.27
2022-11-09T22:32:04.118Z,98.22
2022-11-09T22:34:30.609Z,98.12
2022-11-09T22:36:57.316Z,98.28
2022-11-09T22:39:23.804Z,98.49
2022-11-09T22:41:50.233Z,98.61
2022-11-09T22:44:16.725Z,98.76
2022-11-09T22:46:43.118Z,98.93
2022-11-09T22:49:10.294Z,98.86
2022-11-09T22:51:36.832Z,99.25
2022-11-09T22:54:03.498Z,99.11
2022-11-09T22:56:29.993Z,99.07
2022-11-09T22:58:56.448Z,99.27
2022-11-09T23:01:23.146Z,99.40
2022-11-09T23:03:49.592Z,99.39
2022-11-09T23:06:21.536Z,99.18
2022-11-09T23:08:48.163Z,99.33
2022-11-09T23:11:20.598Z,99.29
2022-11-09T23:13:52.162Z,99.63
2022-11-09T23:16:19.046Z,99.35
2022-11-09T23:18:55.101Z,99.89
2022-11-09T23:21:21.516Z,99.93
2022-11-09T23:23:48.703Z,100.00
2022-11-09T23:26:15.535Z,100.00
2022-11-09T23:28:44.925Z,100.00
2022-11-09T23:31:14.298Z,100.00
2022-11-09T23:33:41.111Z,100.00
2022-11-09T23:36:08.371Z,99.89
2022-11-09T23:38:37.251Z,100.00
2022-11-09T23:41:05.601Z,100.00
2022-11-09T23:43:32.137Z,99.81
2022-11-09T23:46:07.114Z,100.00
2022-11-09T23:48:33.625Z,100.00
2022-11-09T23:51:01.629Z,100.00
2022-11-09T23:53:29.675Z,100.00
2022-11-09T23:56:05.373Z,100.00
2022-11-09T23:58:31.874Z,100.00
